Tiempo atmosférico en la estación meteorológica de Bailo, Huesca (722 m.)



Fecha
DESCASC
Temp. máxima en grados centígrados (hora)
DESCASC
Temp. mínima en grados centígrados (hora)
DESCASC
Temp. media en grados centígrados
DESCASC
Racha de viento máxima en m/sg (hora)
DESCASC
Velocidad máxima media en intervalos de 10 minutos(hora)
DESCASC
Precipitaciones diarias en mm
DESCASC
Precipitaciones de 00:00 a 06:00 en mm
DESCASC
Precipitaciones de 06:00 a 12:00 en mm
DESCASC
Precipitaciones de 12:00 a 18:00 en mm
DESCASC
Precipitaciones de 18:00 a 24:00 en mm
DESCASC
06-12-2018 13.4 (13:10) 3.7 (06:00) 8.5 14.44 (11:30) 10 (11:30) 0 0 0 0 0
05-12-2018 16.4 (14:50) 5 (08:30) 10.7 2.78 (18:50) 2.22 (18:50) 0 0 0 0 0
04-12-2018 13.6 (15:50) 3.5 (07:50) 8.6 2.5 (17:20) 1.94 (17:30) 0.2 0 0.2 0 0
03-12-2018 11.5 (16:00) 2.7 (00:00) 7.1 3.33 (13:20) 2.22 (05:50) 0.2 0 0 0.2 0
02-12-2018 13.4 (15:40) 4 (00:00) 8.7 3.89 (08:10) 2.78 (08:10) 0.2 0.2 0 0 0
01-12-2018 10.1 (16:30) 2.2 (00:00) 6.2 7.78 (01:10) 5.83 (01:30) 0.8 0 0 0 0.8
30-11-2018 10.3 (15:20) 4.4 (00:00) 7.4 12.78 (16:30) 8.61 (09:50) 0.4 0.4 0 0 0
29-11-2018 14 (14:10) 2.2 (00:00) 8.1 11.39 (04:30) 8.33 (04:30) 0 0 0 0 0
28-11-2018 14 (15:30) 0.6 (00:00) 7.3 3.33 (03:20) 2.78 (03:20) 0 0 0 0 0
27-11-2018 12.7 (15:20) 3.4 (00:00) 8 13.06 (10:40) 10 (10:40) 0 0 0 0 0
26-11-2018 6.8 (14:50) 2.7 (07:20) 4.8 15.28 (11:00) 10.56 (14:30) 2.4 2 0.2 0.2 0
25-11-2018 9.9 (14:30) 3.2 (00:00) 6.5 9.72 (00:10) 6.39 (15:20) 4.4 0.8 3.6 0 0
24-11-2018 10.8 (14:20) 0.2 (00:00) 5.5 10.28 (22:50) 6.11 (22:50) 0.2 0.2 0 0 0
23-11-2018 8.1 (01:10) 2.3 (00:00) 5.2 7.78 (05:50) 5.83 (03:30) 4 0 3.6 0.4 0
22-11-2018 10.1 (14:00) 5.7 (00:00) 7.9 9.72 (04:20) 6.67 (04:10) 0 0 0 0 0
21-11-2018 10.4 (15:50) 4.9 (00:00) 7.6 8.61 (09:20) 6.67 (09:30) 0.6 0 0.6 0 0
20-11-2018 6 (15:40) 1.3 (00:00) 3.6 7.22 (10:30) 4.17 (10:30) 4 0 0.8 2.8 0.4
19-11-2018 13.6 (14:50) 3.1 (00:00) 8.4 9.17 (16:30) 7.22 (16:50) 0 0 0 0 0
18-11-2018 9.6 (00:10) 7.3 (00:00) 8.5 12.78 (09:10) 7.78 (09:30) 5.6 0 0.4 5.2 0
17-11-2018 14.8 (16:00) 5.3 (00:00) 10.1 6.39 (22:40) 4.72 (22:40) 0 0 0 0 0
16-11-2018 15.9 (13:40) 6.9 (00:00) 11.4 6.94 (16:10) 4.44 (16:10) 0 0 0 0 0
15-11-2018 16.2 (13:00) 9.7 (00:00) 13 8.06 (03:00) 5.56 (03:00) 0 0 0 0 0
14-11-2018 15.6 (14:20) 6 (00:00) 10.8 8.33 (19:10) 6.11 (19:10) 0 0 0 0 0
13-11-2018 17.4 (15:10) 8.3 (00:00) 12.8 8.89 (00:20) 6.11 (19:20) 0 0 0 0 0
12-11-2018 16.9 (15:40) 12.6 (00:00) 14.8 10.83 (14:10) 7.22 (22:50) 0 0 0 0 0
11-11-2018 16.6 (15:50) 9.8 (00:00) 13.2 11.67 (20:30) 8.33 (15:20) 0 0 0 0 0
10-11-2018 11.6 (14:20) 6.8 (00:00) 9.2 10.56 (11:40) 7.22 (19:20) 2 0 0.4 1.4 0.2
09-11-2018 12.1 (14:40) 6 (00:00) 9.1 11.67 (09:20) 8.89 (09:20) 6.8 6.6 0.2 0 0

Gráficas

Temp. máximas Temp. mínimas Temp. medias Precipitaciones Rachas de viento máximas Velocidades máximas media en intervalos de 10 minutos

Datos horarios

Fecha y hora oficial Temperatura (ºC) Velocidad del viento (km/h) Dirección del viento Racha (km/h) Dirección de racha Precipitación (mm) Presión (hPa) Tendencia (hPa) Humedad (%)
2018-12-08 23:00:00 6.9 6 Sudeste 9 Sudeste 0 -- -- 67
2018-12-08 22:00:00 6 0 Calma 5 Sudoeste 0 -- -- 68
2018-12-08 21:00:00 6.5 0 Calma 5 Oeste 0 -- -- 65
2018-12-08 20:00:00 7.3 2 Sudoeste 8 Sudoeste 0 -- -- 63
2018-12-08 19:00:00 7.7 7 Sudeste 12 Sudeste 0 -- -- 67
2018-12-08 18:00:00 8.2 2 Sur 8 Oeste 0 -- -- 65
2018-12-08 17:00:00 9.7 3 Sudoeste 17 Noroeste 0 -- -- 63
2018-12-08 16:00:00 10.8 13 Noroeste 30 Noroeste 0 -- -- 60
2018-12-08 15:00:00 10.1 27 Noroeste 35 Noroeste 0 -- -- 64
2018-12-08 14:00:00 10.4 25 Noroeste 42 Noroeste 0 -- -- 63
2018-12-08 13:00:00 10.1 27 Noroeste 41 Noroeste 0 -- -- 64
2018-12-08 12:00:00 9.4 30 Noroeste 50 Noroeste 0 -- -- 63
2018-12-08 11:00:00 8.4 39 Noroeste 51 Noroeste 0 -- -- 69
2018-12-08 10:00:00 7.3 28 Noroeste 42 Noroeste 0 -- -- 77
2018-12-08 09:00:00 6.4 26 Noroeste 33 Noroeste 0 -- -- 81
2018-12-08 08:00:00 6.7 26 Noroeste 41 Noroeste 0 -- -- 78
2018-12-08 07:00:00 6.7 28 Noroeste 38 Noroeste 0 -- -- 78
2018-12-08 06:00:00 7.1 26 Noroeste 37 Noroeste 0 -- -- 76
2018-12-08 05:00:00 7.2 22 Noroeste 33 Noroeste 0 -- -- 77
2018-12-08 04:00:00 7.6 21 Noroeste 35 Noroeste 0 -- -- 73
2018-12-08 03:00:00 7.2 19 Noroeste 44 Norte 0 -- -- 77
2018-12-08 02:00:00 8.3 28 Noroeste 48 Noroeste 0 -- -- 68
2018-12-08 01:00:00 7.9 23 Noroeste 45 Noroeste 0 -- -- 74
2018-12-08 00:00:00 8 28 Noroeste 44 Noroeste 0 -- -- 73
2018-12-07 23:00:00 9.1 31 Noroeste 46 Noroeste 0 -- -- 73
2018-12-07 22:00:00 10.4 25 Noroeste 43 Noroeste 0 -- -- 75
2018-12-07 21:00:00 10.4 15 Norte 36 Noroeste 0 -- -- 78
2018-12-07 20:00:00 10.7 24 Noroeste 36 Norte 0 -- -- 76
2018-12-07 19:00:00 11.1 16 Noroeste 27 Noroeste 0 -- -- 74
2018-12-07 18:00:00 11.6 21 Noroeste 42 Noroeste 0 -- -- 69
2018-12-07 17:00:00 12.2 27 Noroeste 35 Noroeste 0 -- -- 66
2018-12-07 16:00:00 11 3 Sudeste 10 Este 0 -- -- 68
2018-12-07 15:00:00 10.1 5 Este 9 Este 0 -- -- 70
2018-12-07 14:00:00 9.2 3 Nordeste 11 Noroeste 0 -- -- 71
2018-12-07 13:00:00 8.2 5 Norte 9 Noroeste 0 -- -- 74
2018-12-07 12:00:00 6.2 4 Norte 7 Sudeste 0 -- -- 82
2018-12-07 11:00:00 4.1 5 Sudeste 8 Este 0 -- -- 85
2018-12-07 10:00:00 2.6 4 Sudeste 6 Sur 0 -- -- 96
2018-12-07 09:00:00 -0.4 3 Oeste 6 Este 0 -- -- 96
2018-12-07 08:00:00 0.4 0 Calma 6 Noroeste 0 -- -- 96
2018-12-07 07:00:00 1.5 3 Este 8 Sur 0 -- -- 94
2018-12-07 06:00:00 1.1 2 Este 5 Este 0 -- -- 94
2018-12-07 05:00:00 1.4 0 Calma 9 Norte 0 -- -- 93
2018-12-07 04:00:00 2.2 3 Este 5 Este 0 -- -- 90
2018-12-07 03:00:00 2.5 4 Oeste 9 Sur 0 -- -- 88
2018-12-07 02:00:00 3.2 4 Sur 8 Sur 0 -- -- 87
2018-12-07 01:00:00 4.2 8 Sudoeste 10 Sudoeste 0 -- -- 85
2018-12-07 00:00:00 6 5 Sur 11 Sudoeste 0 -- -- 76
2018-12-06 23:00:00 6.6 3 Sudeste 10 Noroeste 0 -- -- 73
2018-12-06 22:00:00 7.3 6 Noroeste 12 Noroeste 0 -- -- 70
2018-12-06 21:00:00 7.8 12 Norte 23 Noroeste 0 -- -- 69
2018-12-06 20:00:00 8.4 17 Noroeste 32 Noroeste 0 -- -- 68
2018-12-06 19:00:00 8.9 19 Noroeste 34 Noroeste 0 -- -- 66
2018-12-06 18:00:00 10 24 Noroeste 41 Noroeste 0 -- -- 66
2018-12-06 17:00:00 10.8 23 Noroeste 41 Noroeste 0 -- -- 64
2018-12-06 16:00:00 12.5 32 Noroeste 50 Noroeste 0 -- -- 58
2018-12-06 15:00:00 12.9 31 Noroeste 46 Noroeste 0 -- -- 60
2018-12-06 14:00:00 13.2 30 Noroeste 46 Noroeste 0 -- -- 59
2018-12-06 13:00:00 13.2 32 Noroeste 51 Noroeste 0 -- -- 61
2018-12-06 12:00:00 13 30 Noroeste 52 Noroeste 0 -- -- 64
2018-12-06 11:00:00 12.6 32 Noroeste 46 Noroeste 0 -- -- 64
2018-12-06 10:00:00 11.8 23 Noroeste 36 Noroeste 0 -- -- 71
2018-12-06 09:00:00 9.9 21 Noroeste 28 Noroeste 0 -- -- 78
2018-12-06 08:00:00 9.9 18 Noroeste 32 Noroeste 0 -- -- 80
2018-12-06 07:00:00 6.7 5 Noroeste 11 Oeste 0 -- -- 88
2018-12-06 06:00:00 3.7 2 Sudoeste 8 Noroeste 0 -- -- 94
2018-12-06 05:00:00 5.5 5 Este 9 Noroeste 0 -- -- 92
2018-12-06 04:00:00 7.7 4 Noroeste 15 Noroeste 0 -- -- 86
2018-12-06 03:00:00 9.2 6 Noroeste 12 Noroeste 0 -- -- 83
2018-12-06 02:00:00 10.1 2 Este 11 Noroeste 0 -- -- 83
2018-12-06 01:00:00 9.5 8 Noroeste 13 Noroeste 0 -- -- 86
2018-12-06 00:00:00 6.2 5 Sudeste 7 Norte 0 -- -- 94
2018-12-05 23:00:00 7.3 2 Oeste 8 Nordeste 0 -- -- 92
2018-12-05 22:00:00 8.8 4 Sudeste 8 Sudoeste 0 -- -- 87
2018-12-05 21:00:00 9 0 Calma 6 Sudeste 0 -- -- 87
2018-12-05 20:00:00 9.6 5 Sudeste 10 Sudeste 0 -- -- 89
2018-12-05 19:00:00 10.2 7 Oeste 10 Oeste 0 -- -- 88
2018-12-05 18:00:00 12.4 6 Noroeste 9 Sudoeste 0 -- -- 76
2018-12-05 17:00:00 14 0 Calma 9 Norte 0 -- -- 72
2018-12-05 16:00:00 16.4 2 Sudoeste 7 Sudoeste 0 -- -- 68
2018-12-05 15:00:00 16.4 4 Noroeste 9 Noroeste 0 -- -- 66
2018-12-05 14:00:00 14.7 2 Norte 6 Este 0 -- -- 73
2018-12-05 13:00:00 12.9 2 Oeste 6 Noroeste 0 -- -- 83
2018-12-05 12:00:00 10.3 3 Oeste 7 Oeste 0 -- -- 96
2018-12-05 11:00:00 8.3 3 Nordeste 6 Este 0 -- -- 98
2018-12-05 10:00:00 6.4 0 Calma 5 Noroeste 0 -- -- 98
2018-12-05 09:00:00 5.1 0 Calma 4 Este 0 -- -- 98
2018-12-05 08:00:00 5.6 0 Calma 4 Oeste 0 -- -- 98
2018-12-05 07:00:00 6.1 2 Noroeste 6 Noroeste 0 -- -- 98
2018-12-05 06:00:00 5.6 0 Calma 4 Noroeste 0 -- -- 97
2018-12-05 05:00:00 6.1 3 Noroeste 4 Noroeste 0 -- -- 98
2018-12-05 04:00:00 6.4 0 Calma 5 Noroeste 0 -- -- 98
2018-12-05 03:00:00 6.5 3 Oeste 4 Sudoeste 0 -- -- 98
2018-12-05 02:00:00 7.5 0 Calma 3 Oeste 0 -- -- 97
2018-12-05 01:00:00 7.4 0 Calma 5 Nordeste 0 -- -- 97
2018-12-05 00:00:00 7.8 4 Noroeste 6 Oeste 0 -- -- 96
2018-12-04 23:00:00 8.1 3 Sudeste 5 Sudoeste 0 -- -- 96
2018-12-04 22:00:00 9 0 Calma 6 Sudoeste 0 -- -- 94
2018-12-04 21:00:00 8.9 0 Calma 9 Nordeste 0 -- -- 95
2018-12-04 20:00:00 9.4 2 Este 6 Este 0 -- -- 90
2018-12-04 19:00:00 10.2 4 Noroeste 6 Noroeste 0 -- -- 89
2018-12-04 18:00:00 11.7 4 Sur 9 Sudoeste 0 -- -- 84
2018-12-04 17:00:00 12.8 5 Sur 8 Sudoeste 0 -- -- 82
2018-12-04 16:00:00 13.6 0 Calma 7 Norte 0 -- -- 80
2018-12-04 15:00:00 12.9 0 Calma 5 Nordeste 0 -- -- 87
2018-12-04 14:00:00 11 3 Sudeste 5 Sudeste 0 -- -- 99
2018-12-04 13:00:00 8.4 2 Norte 5 Este 0 -- -- 98
2018-12-04 12:00:00 6.9 2 Noroeste 6 Noroeste 0.2 -- -- 99
2018-12-04 11:00:00 5.6 0 Calma 4 Este 0 -- -- 99
2018-12-04 10:00:00 4.7 2 Sudeste 4 Este 0 -- -- 98
2018-12-04 09:00:00 4.1 0 Calma 4 Norte 0 -- -- 98
2018-12-04 08:00:00 3.6 3 Noroeste 4 Noroeste 0 -- -- 98
2018-12-04 07:00:00 3.6 2 Este 4 Este 0 -- -- 98
2018-12-04 06:00:00 3.9 0 Calma 4 Oeste 0 -- -- 98
2018-12-04 05:00:00 4.9 0 Calma 5 Sudeste 0 -- -- 98
2018-12-04 04:00:00 5.8 2 Sudeste 5 Oeste 0 -- -- 97
2018-12-04 03:00:00 6.2 4 Sudoeste 6 Oeste 0 -- -- 98
2018-12-04 02:00:00 6.1 4 Oeste 6 Sudoeste 0 -- -- 96
2018-12-04 01:00:00 6 3 Este 6 Noroeste 0 -- -- 95
2018-12-04 00:00:00 6.5 0 Calma 7 Noroeste 0 -- -- 94
2018-12-03 23:00:00 7.6 5 Sudoeste 8 Sur 0 -- -- 93
2018-12-03 22:00:00 7.3 3 Sudoeste 6 Sudoeste 0 -- -- 93
2018-12-03 21:00:00 8.6 4 Sudoeste 10 Sudeste 0 -- -- 91
2018-12-03 20:00:00 8.3 0 Calma 5 Sudeste 0 -- -- 93
2018-12-03 19:00:00 8.9 5 Noroeste 8 Noroeste 0 -- -- 88
2018-12-03 18:00:00 9.8 4 Sudoeste 7 Sudoeste 0 -- -- 87
2018-12-03 17:00:00 10.8 0 Calma 9 Este 0 -- -- 84
2018-12-03 16:00:00 11.5 3 Norte 7 Este 0 -- -- 80
2018-12-03 15:00:00 10.4 4 Sudeste 8 Sudeste 0.2 -- -- 86
2018-12-03 14:00:00 9.8 3 Noroeste 12 Norte 0 -- -- 87
2018-12-03 13:00:00 10.2 3 Nordeste 9 Noroeste 0 -- -- 89
2018-12-03 12:00:00 8.8 4 Noroeste 9 Sudeste 0 -- -- 98
2018-12-03 11:00:00 6.3 5 Sudeste 8 Sudeste 0 -- -- 98
2018-12-03 10:00:00 5.3 3 Este 5 Oeste 0 -- -- 99
2018-12-03 09:00:00 4.1 0 Calma 6 Sur 0 -- -- 98
2018-12-03 08:00:00 3.9 0 Calma 7 Oeste 0 -- -- 98
2018-12-03 07:00:00 3.6 2 Sudoeste 9 Sudeste 0 -- -- 98
2018-12-03 06:00:00 3.2 5 Norte 9 Noroeste 0 -- -- 98
2018-12-03 05:00:00 3.8 3 Noroeste 5 Noroeste 0 -- -- 97
2018-12-03 04:00:00 4.9 3 Noroeste 5 Oeste 0 -- -- 98
2018-12-03 03:00:00 5 2 Oeste 7 Noroeste 0 -- -- 97
2018-12-03 02:00:00 5.3 6 Noroeste 8 Noroeste 0 -- -- 95
2018-12-03 01:00:00 5.7 3 Este 5 Este 0 -- -- 94
2018-12-03 00:00:00 6.6 0 Calma 8 Noroeste 0 -- -- 95
2018-12-02 23:00:00 7 0 Calma 3 Sudoeste 0 -- -- 94
2018-12-02 22:00:00 7.1 0 Calma 5 Este 0 -- -- 93
2018-12-02 21:00:00 7.3 3 Oeste 7 Sudoeste 0 -- -- 93
2018-12-02 20:00:00 7.9 5 Sur 8 Sur 0 -- -- 90
2018-12-02 19:00:00 8.4 5 Noroeste 8 Sudoeste 0 -- -- 89
2018-12-02 18:00:00 9.3 5 Sudoeste 8 Oeste 0 -- -- 86
2018-12-02 17:00:00 12 5 Noroeste 9 Noroeste 0 -- -- 77
2018-12-02 16:00:00 13.3 3 Noroeste 6 Noroeste 0 -- -- 68
2018-12-02 15:00:00 12.4 2 Sudoeste 9 Este 0 -- -- 75
2018-12-02 14:00:00 11.1 5 Sudeste 8 Sudeste 0 -- -- 82
2018-12-02 13:00:00 9.7 3 Este 7 Noroeste 0 -- -- 88
2018-12-02 12:00:00 9.2 4 Este 8 Este 0 -- -- 91
2018-12-02 11:00:00 7.7 3 Nordeste 6 Este 0 -- -- 96
2018-12-02 10:00:00 6.3 3 Sudeste 9 Este 0 -- -- 97
2018-12-02 09:00:00 5.2 2 Sur 14 Noroeste 0 -- -- 98
2018-12-02 08:00:00 4 6 Noroeste 13 Noroeste 0 -- -- 96
2018-12-02 07:00:00 4.8 3 Nordeste 6 Sudoeste 0 -- -- 96
2018-12-02 06:00:00 5.1 0 Calma 5 Sudeste 0 -- -- 97
2018-12-02 05:00:00 5.4 3 Sur 7 Este 0 -- -- 96
2018-12-02 04:00:00 5.8 2 Sur 5 Sudoeste 0 -- -- 97
2018-12-02 03:00:00 6.1 3 Sudoeste 8 Oeste 0 -- -- 96
2018-12-02 02:00:00 6.1 4 Oeste 9 Noroeste 0 -- -- 96
2018-12-02 01:00:00 6.1 5 Noroeste 9 Noroeste 0.2 -- -- 95
2018-12-02 00:00:00 6.5 2 Nordeste 6 Noroeste 0.6 -- -- 93
2018-12-01 23:00:00 6.9 4 Sur 6 Sur 0.2 -- -- 89
2018-12-01 22:00:00 6.9 4 Sudoeste 6 Sudoeste 0 -- -- 84
2018-12-01 21:00:00 6.9 4 Sudeste 6 Sudeste 0 -- -- 82
2018-12-01 20:00:00 6.6 0 Calma 5 Sudoeste 0 -- -- 82
2018-12-01 19:00:00 6.6 4 Sudoeste 6 Sudoeste 0 -- -- 81
2018-12-01 18:00:00 7.5 0 Calma 7 Nordeste 0 -- -- 79
2018-12-01 17:00:00 9.1 4 Nordeste 15 Norte 0 -- -- 73
2018-12-01 16:00:00 10 10 Norte 17 Norte 0 -- -- 70
2018-12-01 15:00:00 8.8 14 Norte 21 Norte 0 -- -- 73
2018-12-01 14:00:00 8.8 8 Norte 14 Nordeste 0 -- -- 75
2018-12-01 13:00:00 7.3 3 Nordeste 8 Nordeste 0 -- -- 82
2018-12-01 12:00:00 5.5 2 Este 6 Nordeste 0 -- -- 91
2018-12-01 11:00:00 4.3 0 Calma 5 Noroeste 0 -- -- 95
2018-12-01 10:00:00 3.3 2 Este 4 Sudoeste 0 -- -- 95
2018-12-01 09:00:00 2.5 3 Nordeste 6 Noroeste 0 -- -- 94
2018-12-01 08:00:00 2.4 2 Sur 8 Noroeste 0 -- -- 94
2018-12-01 07:00:00 2.8 6 Noroeste 8 Noroeste 0 -- -- 92
2018-12-01 06:00:00 3.5 4 Sudeste 7 Sudoeste 0 -- -- 92
2018-12-01 05:00:00 3.1 6 Sudoeste 8 Sudoeste 0 -- -- 91
2018-12-01 04:00:00 3.3 8 Sudoeste 10 Este 0 -- -- 88
2018-12-01 03:00:00 4 6 Nordeste 24 Noroeste 0 -- -- 83
2018-12-01 02:00:00 5.7 18 Oeste 28 Oeste 0 -- -- 75
2018-12-01 01:00:00 5.9 17 Oeste 27 Oeste 0 -- -- 76
2018-12-01 00:00:00 6.2 20 Noroeste 32 Noroeste 0 -- -- 78
2018-11-30 23:00:00 6.3 20 Noroeste 31 Oeste 0 -- -- 83
2018-11-30 22:00:00 6.8 23 Noroeste 34 Noroeste 0 -- -- 78
2018-11-30 21:00:00 6.8 21 Noroeste 36 Noroeste 0 -- -- 77
2018-11-30 20:00:00 6.7 24 Noroeste 32 Noroeste 0 -- -- 78
2018-11-30 19:00:00 6.9 22 Noroeste 36 Noroeste 0 -- -- 80
2018-11-30 18:00:00 7.7 25 Noroeste 42 Noroeste 0 -- -- 75
2018-11-30 17:00:00 8.3 27 Noroeste 46 Noroeste 0 -- -- 70
2018-11-30 16:00:00 9 21 Noroeste 35 Norte 0 -- -- 63
2018-11-30 15:00:00 9.8 22 Noroeste 40 Norte 0 -- -- 62
2018-11-30 14:00:00 9.8 21 Noroeste 39 Noroeste 0 -- -- 65
2018-11-30 13:00:00 9.1 29 Noroeste 39 Noroeste 0 -- -- 68
2018-11-30 12:00:00 8.7 30 Noroeste 42 Noroeste 0 -- -- 70
2018-11-30 11:00:00 8.7 29 Noroeste 44 Noroeste 0 -- -- 68
2018-11-30 10:00:00 8.1 30 Noroeste 42 Noroeste 0 -- -- 74
2018-11-30 09:00:00 6.9 26 Noroeste 40 Noroeste 0 -- -- 82
2018-11-30 08:00:00 6.7 28 Noroeste 36 Noroeste 0 -- -- 84
2018-11-30 07:00:00 4.9 3 Sudeste 7 Noroeste 0 -- -- 94
2018-11-30 06:00:00 5.4 4 Oeste 6 Noroeste 0 -- -- 92
2018-11-30 05:00:00 5.5 0 Calma 5 Oeste 0.2 -- -- 91
2018-11-30 04:00:00 5.4 4 Oeste 8 Oeste 0 -- -- 90
2018-11-30 03:00:00 5.5 3 Sur 8 Noroeste 0 -- -- 89
2018-11-30 02:00:00 6.1 5 Sudoeste 13 Oeste 0.2 -- -- 86
2018-11-30 01:00:00 6.7 2 Sudeste 7 Sudoeste 0 -- -- 75
2018-11-30 00:00:00 7 3 Oeste 10 Sudeste 0 -- -- 71
2018-11-29 23:00:00 7.6 3 Sudeste 7 Norte 0 -- -- 64
2018-11-29 22:00:00 8 7 Sudeste 9 Sudeste 0 -- -- 63
2018-11-29 21:00:00 8.2 3 Oeste 8 Sudoeste 0 -- -- 59
2018-11-29 20:00:00 9 0 Calma 9 Sudeste 0 -- -- 52
2018-11-29 19:00:00 9.7 6 Sudeste 29 Este 0 -- -- 48
2018-11-29 18:00:00 10.6 9 Este 37 Sur 0 -- -- 49
2018-11-29 17:00:00 11.4 24 Sudoeste 34 Sudoeste 0 -- -- 40
2018-11-29 16:00:00 12.7 23 Sur 35 Sur 0 -- -- 38
2018-11-29 15:00:00 13.5 21 Sur 30 Sur 0 -- -- 41
2018-11-29 14:00:00 13.5 22 Sudoeste 29 Sur 0 -- -- 42
2018-11-29 13:00:00 12.6 22 Sur 30 Sur 0 -- -- 41
2018-11-29 12:00:00 11.2 14 Sur 26 Sudeste 0 -- -- 45
2018-11-29 11:00:00 9.6 17 Sudeste 30 Sudeste 0 -- -- 51
2018-11-29 10:00:00 6.7 19 Sur 30 Sudeste 0 -- -- 57
2018-11-29 09:00:00 6.2 14 Sur 31 Sudeste 0 -- -- 63
2018-11-29 08:00:00 4.9 17 Sudeste 31 Sudeste 0 -- -- 66
2018-11-29 07:00:00 5.4 24 Sur 33 Sudeste 0 -- -- 62
2018-11-29 06:00:00 4.8 14 Sudeste 28 Sudeste 0 -- -- 65
2018-11-29 05:00:00 4.6 14 Sudeste 41 Sudeste 0 -- -- 69
2018-11-29 04:00:00 6.1 18 Sudeste 33 Sur 0 -- -- 67
2018-11-29 03:00:00 3.6 5 Noroeste 17 Sur 0 -- -- 74
2018-11-29 02:00:00 2.9 7 Sudeste 13 Este 0 -- -- 80
2018-11-29 01:00:00 2.5 3 Noroeste 8 Noroeste 0 -- -- 81
2018-11-29 00:00:00 3.3 0 Calma 6 Sudeste 0 -- -- 79
2018-11-28 23:00:00 4.1 0 Calma 6 Sur 0 -- -- 76
2018-11-28 22:00:00 4.6 0 Calma 7 Oeste 0 -- -- 75
2018-11-28 21:00:00 5.4 3 Noroeste 5 Norte 0 -- -- 71
2018-11-28 14:00:00 -- -- -- -- -- -- -- -- --
2018-11-28 13:00:00 9.2 3 Nordeste 7 Noroeste 0 -- -- 63
2018-11-28 12:00:00 7.7 4 Sudeste 8 Este 0 -- -- 72
2018-11-28 11:00:00 5.6 2 Sudeste 6 Sudeste 0 -- -- 80
2018-11-28 10:00:00 2.9 2 Este 4 Sudeste 0 -- -- 92
2018-11-28 09:00:00 1.3 2 Nordeste 5 Sudoeste 0 -- -- 94
2018-11-28 08:00:00 0.9 3 Oeste 6 Sudoeste 0 -- -- 93
2018-11-28 07:00:00 1 0 Calma 6 Este 0 -- -- 93
2018-11-28 06:00:00 0.8 0 Calma 5 Oeste 0 -- -- 94
2018-11-28 05:00:00 1.4 5 Sudoeste 6 Sudoeste 0 -- -- 94
2018-11-28 04:00:00 1.7 2 Nordeste 12 Oeste 0 -- -- 91
2018-11-28 03:00:00 1.3 0 Calma 5 Norte 0 -- -- 92
2018-11-28 02:00:00 1.6 6 Sudeste 9 Sudeste 0 -- -- 92
2018-11-28 01:00:00 2.7 0 Calma 4 Este 0 -- -- 87
2018-11-28 00:00:00 3.4 0 Calma 4 Norte 0 -- -- 86
2018-11-27 23:00:00 3.8 0 Calma 6 Oeste 0 -- -- 84
2018-11-27 22:00:00 4.9 0 Calma 5 Sudoeste 0 -- -- 79
2018-11-27 21:00:00 6.5 5 Sur 10 Sudoeste 0 -- -- 72
2018-11-27 20:00:00 6.8 8 Sur 9 Sur 0 -- -- 75
2018-11-27 19:00:00 7.4 0 Calma 7 Sudoeste 0 -- -- 69
2018-11-27 18:00:00 9.2 3 Nordeste 17 Oeste 0 -- -- 64
2018-11-27 17:00:00 10.2 12 Noroeste 26 Noroeste 0 -- -- 61
2018-11-27 16:00:00 12.7 15 Noroeste 21 Noroeste 0 -- -- 54
2018-11-27 15:00:00 12.2 18 Noroeste 32 Noroeste 0 -- -- 54
2018-11-27 14:00:00 11.8 24 Noroeste 39 Noroeste 0 -- -- 57
2018-11-27 13:00:00 11.4 22 Noroeste 31 Oeste 0 -- -- 61
2018-11-27 12:00:00 10.4 13 Oeste 33 Noroeste 0 -- -- 61
2018-11-27 11:00:00 8.2 26 Noroeste 47 Noroeste 0 -- -- 71
2018-11-27 10:00:00 8 31 Noroeste 41 Noroeste 0 -- -- 71
2018-11-27 09:00:00 6.6 25 Oeste 40 Oeste 0 -- -- 75
2018-11-27 08:00:00 5.9 22 Oeste 42 Noroeste 0 -- -- 76
2018-11-27 07:00:00 6.1 32 Noroeste 45 Noroeste 0 -- -- 75
2018-11-27 06:00:00 5 16 Noroeste 35 Noroeste 0 -- -- 76
2018-11-27 05:00:00 5 20 Noroeste 38 Noroeste 0 -- -- 75
2018-11-27 04:00:00 5.5 30 Norte 45 Noroeste 0 -- -- 71
2018-11-27 03:00:00 5.6 32 Noroeste 46 Noroeste 0 -- -- 70
2018-11-27 02:00:00 5.2 21 Noroeste 38 Noroeste 0 -- -- 73
2018-11-27 01:00:00 5.7 25 Noroeste 43 Noroeste 0 -- -- 70
2018-11-27 00:00:00 5.6 22 Noroeste 39 Noroeste 0 -- -- 73
2018-11-26 23:00:00 5.5 22 Noroeste 42 Noroeste 0 -- -- 75
2018-11-26 22:00:00 5.7 27 Noroeste 46 Norte 0 -- -- 74
2018-11-26 21:00:00 5.3 24 Noroeste 43 Noroeste 0 -- -- 80
2018-11-26 20:00:00 5.9 28 Noroeste 50 Noroeste 0 -- -- 72
2018-11-26 19:00:00 6 29 Noroeste 50 Noroeste 0 -- -- 74
2018-11-26 18:00:00 6.4 31 Noroeste 44 Noroeste 0 -- -- 76
2018-11-26 17:00:00 6 24 Noroeste 43 Noroeste 0 -- -- 82
2018-11-26 16:00:00 6.5 28 Noroeste 44 Noroeste 0 -- -- 80
2018-11-26 15:00:00 6.7 33 Noroeste 54 Noroeste 0.2 -- -- 79
2018-11-26 14:00:00 6.6 32 Noroeste 48 Noroeste 0 -- -- 78
2018-11-26 13:00:00 6.3 28 Noroeste 50 Noroeste 0 -- -- 78
2018-11-26 12:00:00 6.5 29 Noroeste 48 Noroeste 0 -- -- 77
2018-11-26 11:00:00 6.2 33 Noroeste 55 Noroeste 0 -- -- 79
2018-11-26 10:00:00 4.9 27 Noroeste 44 Noroeste 0 -- -- 84
2018-11-26 09:00:00 4.6 26 Noroeste 37 Noroeste 0 -- -- 86
2018-11-26 08:00:00 2.8 5 Sur 10 Norte 0 -- -- 95
2018-11-26 07:00:00 3 9 Noroeste 13 Oeste 0.2 -- -- 93
2018-11-26 06:00:00 3.3 11 Oeste 14 Oeste 1.6 -- -- 92
2018-11-26 05:00:00 3.6 9 Noroeste 19 Sur 0.4 -- -- 91
2018-11-26 04:00:00 4.3 9 Sur 18 Sudeste 0 -- -- 83
2018-11-26 03:00:00 4.2 3 Norte 14 Sur 0 -- -- 85
2018-11-26 02:00:00 5 6 Sudeste 22 Sudeste 0 -- -- 79
2018-11-26 01:00:00 4.9 11 Sur 22 Sur 0 -- -- 80
2018-11-26 00:00:00 3.7 4 Sudoeste 7 Sudoeste 0 -- -- 86
2018-11-25 23:00:00 3.5 0 Calma 5 Oeste 0 -- -- 85
2018-11-25 22:00:00 4.5 2 Noroeste 6 Sudeste 0 -- -- 79
2018-11-25 21:00:00 4.8 4 Sudeste 19 Oeste 0 -- -- 78
2018-11-25 20:00:00 4.7 11 Oeste 17 Oeste 0 -- -- 80
2018-11-25 19:00:00 5.2 9 Noroeste 13 Noroeste 0 -- -- 79
2018-11-25 18:00:00 6.4 9 Noroeste 18 Noroeste 0 -- -- 75
2018-11-25 17:00:00 8 12 Noroeste 28 Noroeste 0 -- -- 68
2018-11-25 16:00:00 9.2 15 Noroeste 32 Noroeste 0 -- -- 64
2018-11-25 15:00:00 8.6 16 Noroeste 26 Norte 0 -- -- 68
2018-11-25 14:00:00 9.2 16 Noroeste 27 Norte 0 -- -- 69
2018-11-25 13:00:00 8.5 18 Noroeste 27 Norte 0 -- -- 72
2018-11-25 12:00:00 8 13 Noroeste 22 Norte 0 -- -- 81
2018-11-25 11:00:00 6.4 8 Noroeste 13 Noroeste 0 -- -- 94
2018-11-25 10:00:00 5.1 3 Noroeste 8 Oeste 0.6 -- -- 96
2018-11-25 09:00:00 4.8 4 Nordeste 14 Sur 1.4 -- -- 94
2018-11-25 08:00:00 4.9 10 Sudeste 25 Sudeste 0.4 -- -- 92
2018-11-25 07:00:00 4.9 10 Sudeste 19 Sudeste 1.2 -- -- 92
2018-11-25 06:00:00 4.8 9 Sur 27 Sur 0.6 -- -- 88
2018-11-25 05:00:00 5 19 Sur 34 Sur 0 -- -- 85
2018-11-25 04:00:00 5.3 20 Sur 30 Sudeste 0 -- -- 82
2018-11-25 03:00:00 4.8 16 Sur 22 Sur 0 -- -- 84
2018-11-25 02:00:00 5 15 Sudeste 25 Sudeste 0.2 -- -- 87
2018-11-25 01:00:00 5.6 14 Sur 35 Sudeste 0 -- -- 77
2018-11-25 00:00:00 6.1 19 Sudeste 32 Sudeste 0 -- -- 73
2018-11-24 23:00:00 6 13 Sur 37 Sudeste 0 -- -- 78
2018-11-24 22:00:00 5.1 10 Sudeste 21 Sur 0 -- -- 84
2018-11-24 21:00:00 5.7 15 Sur 25 Sudoeste 0 -- -- 83
2018-11-24 20:00:00 6.7 19 Sur 24 Sur 0 -- -- 80
2018-11-24 19:00:00 6.3 8 Sudoeste 12 Sur 0 -- -- 79
2018-11-24 18:00:00 6.7 12 Sudoeste 18 Sudoeste 0 -- -- 79
2018-11-24 17:00:00 8.3 11 Sudoeste 17 Sur 0 -- -- 73
2018-11-24 16:00:00 9.5 9 Sur 18 Sur 0 -- -- 66
2018-11-24 15:00:00 10.1 13 Sur 18 Sur 0 -- -- 66
2018-11-24 14:00:00 10.5 12 Sur 19 Sur 0 -- -- 62
2018-11-24 13:00:00 9.6 12 Sur 17 Sudeste 0 -- -- 64
2018-11-24 12:00:00 7.8 11 Sudeste 15 Sudeste 0 -- -- 82
2018-11-24 11:00:00 4.1 4 Norte 13 Este 0 -- -- 91
2018-11-24 10:00:00 1.8 3 Noroeste 14 Sudeste 0 -- -- 95
2018-11-24 09:00:00 0.8 4 Noroeste 15 Sur 0 -- -- 96
2018-11-24 08:00:00 0.4 3 Este 14 Sur 0 -- -- 96
2018-11-24 07:00:00 0.4 5 Sudeste 20 Sudeste 0 -- -- 96
2018-11-24 06:00:00 1 8 Sur 21 Sudeste 0 -- -- 98
2018-11-24 05:00:00 0.3 3 Oeste 6 Oeste 0 -- -- 96
2018-11-24 04:00:00 1 3 Este 9 Sudeste 0 -- -- 97
2018-11-24 03:00:00 1.1 4 Sur 9 Sudoeste 0.2 -- -- 97
2018-11-24 02:00:00 1.3 5 Oeste 15 Sur 0 -- -- 95
2018-11-24 01:00:00 2.2 7 Sur 15 Sur 0 -- -- 97
2018-11-24 00:00:00 2.3 4 Sudoeste 14 Sur 0 -- -- 95
2018-11-23 23:00:00 2.4 4 Nordeste 14 Sur 0 -- -- 95
2018-11-23 22:00:00 2.9 3 Sudoeste 6 Sur 0 -- -- 94
2018-11-23 21:00:00 3 2 Nordeste 8 Noroeste 0 -- -- 92
2018-11-23 20:00:00 4.5 9 Sur 12 Sur 0 -- -- 89
2018-11-23 19:00:00 4.1 4 Oeste 9 Sudoeste 0 -- -- 91
2018-11-23 18:00:00 5 9 Sudoeste 13 Sudoeste 0 -- -- 87
2018-11-23 17:00:00 6.5 5 Sudoeste 7 Este 0 -- -- 85
2018-11-23 16:00:00 7.3 2 Este 8 Sudeste 0 -- -- 82
2018-11-23 15:00:00 6.8 8 Sudeste 13 Sudeste 0 -- -- 88
2018-11-23 14:00:00 6 3 Sudeste 8 Este 0 -- -- 91
2018-11-23 13:00:00 5.9 2 Nordeste 8 Este 0.4 -- -- 91
2018-11-23 12:00:00 5.9 3 Norte 9 Nordeste 1.2 -- -- 93
2018-11-23 11:00:00 6.4 4 Este 8 Sur 1.6 -- -- 91
2018-11-23 10:00:00 6.4 9 Sur 23 Sudeste 0.2 -- -- 84
2018-11-23 09:00:00 6.2 17 Sur 24 Sur 0 -- -- 84
2018-11-23 08:00:00 6 17 Sur 24 Sur 0.4 -- -- 85
2018-11-23 07:00:00 6.5 18 Sur 27 Sur 0.2 -- -- 80
2018-11-23 06:00:00 7 20 Sur 28 Sur 0 -- -- 74
2018-11-23 05:00:00 7.7 12 Sur 23 Sur 0 -- -- 68
2018-11-23 04:00:00 7.8 18 Sur 27 Sur 0 -- -- 68
2018-11-23 03:00:00 7.1 16 Sur 25 Sur 0 -- -- 73
2018-11-23 02:00:00 7.4 14 Sur 21 Sur 0 -- -- 71
2018-11-23 01:00:00 8 15 Sur 20 Sur 0 -- -- 67
2018-11-23 00:00:00 7.4 14 Sur 23 Sur 0 -- -- 72
2018-11-22 23:00:00 7.7 14 Sur 23 Sur 0 -- -- 70
2018-11-22 22:00:00 7.4 11 Sur 24 Sur 0 -- -- 71
2018-11-22 21:00:00 8 20 Sur 25 Sur 0 -- -- 70
2018-11-22 20:00:00 8.1 14 Sudoeste 19 Sur 0 -- -- 70
2018-11-22 19:00:00 8.3 14 Sur 21 Sur 0 -- -- 70
2018-11-22 18:00:00 8 11 Sur 15 Sur 0 -- -- 74
2018-11-22 17:00:00 9 11 Sudeste 27 Sur 0 -- -- 69
2018-11-22 16:00:00 9.5 13 Sur 26 Sudeste 0 -- -- 67
2018-11-22 15:00:00 9.8 13 Sudeste 26 Sudeste 0 -- -- 68
2018-11-22 14:00:00 10.1 17 Sudeste 29 Sudeste 0 -- -- 68
2018-11-22 13:00:00 9.2 18 Sudeste 27 Sudeste 0 -- -- 73
2018-11-22 12:00:00 9.1 11 Sur 23 Sudeste 0 -- -- 74
2018-11-22 11:00:00 8.6 15 Sur 23 Sur 0 -- -- 78
2018-11-22 10:00:00 7.2 13 Sudeste 19 Sudeste 0 -- -- 85
2018-11-22 09:00:00 5.9 6 Sudeste 21 Sudeste 0 -- -- 88
2018-11-22 08:00:00 5.9 10 Sudeste 17 Sudeste 0 -- -- 89
2018-11-22 07:00:00 5.9 12 Sudeste 20 Sur 0 -- -- 88
2018-11-22 06:00:00 6.5 15 Este 30 Sur 0 -- -- 85
2018-11-22 05:00:00 7.3 16 Sur 35 Sur 0 -- -- 82
2018-11-22 04:00:00 7.4 23 Sur 32 Sudoeste 0 -- -- 83
2018-11-22 03:00:00 7.3 15 Sur 22 Sur 0 -- -- 82
2018-11-22 02:00:00 7.7 9 Sur 17 Sudeste 0 -- -- 82
2018-11-22 01:00:00 7.5 14 Sur 24 Sur 0 -- -- 83
2018-11-22 00:00:00 7.1 15 Sur 27 Sur 0 -- -- 84
2018-11-21 23:00:00 7.7 21 Sur 27 Sur 0 -- -- 80
2018-11-21 22:00:00 7.4 23 Sur 28 Sur 0 -- -- 81
2018-11-21 21:00:00 7.8 19 Sur 28 Sur 0 -- -- 80
2018-11-21 20:00:00 7.8 17 Sur 23 Sur 0 -- -- 82
2018-11-21 19:00:00 7.8 16 Sur 25 Sur 0 -- -- 84
2018-11-21 18:00:00 7.4 10 Sudeste 19 Sudeste 0 -- -- 86
2018-11-21 17:00:00 9.2 10 Sur 21 Sudeste 0 -- -- 77
2018-11-21 16:00:00 10.2 13 Sudeste 25 Sudeste 0 -- -- 74
2018-11-21 15:00:00 9.6 13 Sur 22 Sur 0 -- -- 77
2018-11-21 14:00:00 9.5 15 Sur 25 Sudoeste 0 -- -- 75
2018-11-21 13:00:00 10.1 14 Sur 26 Sur 0 -- -- 74
2018-11-21 12:00:00 9.9 17 Sur 27 Sur 0 -- -- 76
2018-11-21 11:00:00 8.6 19 Sur 29 Sur 0 -- -- 82
2018-11-21 10:00:00 6.7 21 Sur 31 Sur 0.4 -- -- 92
2018-11-21 09:00:00 6.3 20 Sur 29 Sur 0.2 -- -- 91
2018-11-21 08:00:00 6.1 15 Sudeste 24 Sudeste 0 -- -- 92
2018-11-21 07:00:00 6 10 Sudeste 21 Sur 0 -- -- 91
2018-11-21 06:00:00 6.1 8 Sur 23 Sudeste 0 -- -- 91
2018-11-21 05:00:00 5.5 8 Sur 15 Sur 0 -- -- 95
2018-11-21 04:00:00 5.3 0 Calma 17 Sur 0 -- -- 96
2018-11-21 03:00:00 5.3 4 Sudoeste 11 Sudoeste 0 -- -- 97
2018-11-21 02:00:00 5 2 Norte 9 Este 0 -- -- 97
2018-11-21 01:00:00 5.1 3 Nordeste 5 Nordeste 0 -- -- 96
2018-11-21 00:00:00 5.2 0 Calma 6 Oeste 0 -- -- 96
2018-11-20 23:00:00 5.1 4 Noroeste 6 Noroeste 0 -- -- 95
2018-11-20 22:00:00 5.1 2 Noroeste 11 Noroeste 0 -- -- 95
2018-11-20 21:00:00 5.8 3 Sudoeste 13 Sur 0.2 -- -- 91
2018-11-20 20:00:00 5.6 10 Sur 18 Sur 0.2 -- -- 91
2018-11-20 19:00:00 5.8 12 Sur 21 Sur 0 -- -- 89
2018-11-20 18:00:00 5.8 9 Sur 15 Sur 0 -- -- 91
2018-11-20 17:00:00 5.9 6 Sur 21 Sur 0 -- -- 90
2018-11-20 16:00:00 5.9 12 Sur 18 Sur 0 -- -- 90
2018-11-20 15:00:00 4.8 6 Este 21 Sur 1.4 -- -- 94
2018-11-20 14:00:00 4.5 4 Norte 12 Este 1.4 -- -- 92
2018-11-20 13:00:00 4.4 10 Sudeste 18 Sur 0 -- -- 87
2018-11-20 12:00:00 4.1 7 Sudeste 16 Sur 0.6 -- -- 88
2018-11-20 11:00:00 4.1 8 Sudeste 26 Este 0.2 -- -- 84
2018-11-20 10:00:00 3.9 8 Sur 13 Sur 0 -- -- 79
2018-11-20 09:00:00 3.9 5 Sur 22 Sudeste 0 -- -- 80
2018-11-20 08:00:00 2 3 Sudeste 9 Este 0 -- -- 92
2018-11-20 07:00:00 1.7 3 Norte 6 Noroeste 0 -- -- 90
2018-11-20 06:00:00 1.9 2 Sur 5 Sudoeste 0 -- -- 88
2018-11-20 05:00:00 1.4 2 Este 5 Oeste 0 -- -- 89
2018-11-20 04:00:00 1.6 2 Este 5 Oeste 0 -- -- 87
2018-11-20 03:00:00 1.3 2 Este 7 Noroeste 0 -- -- 86
2018-11-20 02:00:00 2.1 2 Noroeste 5 Nordeste 0 -- -- 81
2018-11-20 01:00:00 2.7 0 Calma 6 Oeste 0 -- -- 77
2018-11-20 00:00:00 3.1 3 Oeste 6 Oeste 0 -- -- 75
2018-11-19 23:00:00 4.5 0 Calma 7 Norte 0 -- -- 65
2018-11-19 22:00:00 5.5 4 Norte 9 Sudeste 0 -- -- 64
2018-11-19 21:00:00 5.6 3 Norte 22 Noroeste 0 -- -- 66
2018-11-19 20:00:00 7.1 15 Noroeste 31 Noroeste 0 -- -- 59
2018-11-19 19:00:00 7.8 18 Oeste 28 Oeste 0 -- -- 54
2018-11-19 18:00:00 8.4 19 Noroeste 30 Noroeste 0 -- -- 53
2018-11-19 17:00:00 11.3 24 Noroeste 33 Noroeste 0 -- -- 52
2018-11-19 16:00:00 13.3 19 Noroeste 32 Noroeste 0 -- -- 55
2018-11-19 15:00:00 13.5 16 Noroeste 26 Noroeste 0 -- -- 55
2018-11-19 14:00:00 13 14 Noroeste 27 Oeste 0 -- -- 60
2018-11-19 13:00:00 11 5 Este 9 Sudeste 0 -- -- 73
2018-11-19 12:00:00 8.6 4 Nordeste 8 Nordeste 0 -- -- 79
2018-11-19 11:00:00 7.3 2 Nordeste 6 Nordeste 0 -- -- 89
2018-11-19 10:00:00 5.3 3 Oeste 9 Nordeste 0 -- -- 93
2018-11-19 09:00:00 5.8 3 Este 8 Sudoeste 0 -- -- 91
2018-11-19 08:00:00 5.9 2 Oeste 4 Sudoeste 0 -- -- 90
2018-11-19 07:00:00 6.2 3 Nordeste 8 Este 0 -- -- 89
2018-11-19 06:00:00 6.9 5 Oeste 10 Oeste 0 -- -- 86
2018-11-19 05:00:00 7.2 4 Nordeste 14 Sudoeste 0 -- -- 83
2018-11-19 04:00:00 7.6 9 Sudoeste 15 Este 0 -- -- 82
2018-11-19 03:00:00 8.1 5 Sudeste 22 Sur 0 -- -- 79
2018-11-19 02:00:00 8.7 14 Sur 22 Sur 0 -- -- 75
2018-11-19 01:00:00 8.3 13 Sudeste 21 Sudeste 0 -- -- 78
2018-11-19 00:00:00 8.4 13 Sur 23 Sudeste 0 -- -- 79
2018-11-18 23:00:00 8.4 14 Sudeste 28 Sudeste 0 -- -- 80
2018-11-18 22:00:00 8.4 14 Sur 24 Sur 0 -- -- 80
2018-11-18 21:00:00 8.2 13 Sudeste 23 Sudeste 0 -- -- 82
2018-11-18 20:00:00 7.7 11 Sur 22 Sudeste 0 -- -- 85
2018-11-18 19:00:00 7.7 15 Sur 30 Sudeste 0 -- -- 84
2018-11-18 18:00:00 7.8 20 Sudeste 30 Sudeste 0 -- -- 83
2018-11-18 17:00:00 8.1 19 Sudeste 27 Sudeste 0 -- -- 85
2018-11-18 16:00:00 8.1 17 Sudeste 25 Sudeste 0.6 -- -- 90
2018-11-18 15:00:00 7.5 16 Sudeste 26 Sudeste 1 -- -- 91
2018-11-18 14:00:00 7.4 19 Sudeste 28 Sudeste 1 -- -- 91
2018-11-18 13:00:00 7.3 17 Sudeste 30 Sudeste 2.6 -- -- 90
2018-11-18 12:00:00 8.2 18 Sudeste 31 Sudeste 0.4 -- -- 82
2018-11-18 11:00:00 8.7 24 Sudeste 39 Sudeste 0 -- -- 76
2018-11-18 10:00:00 9 26 Sudeste 46 Sudeste 0 -- -- 72
2018-11-18 09:00:00 9 25 Sudeste 39 Sudeste 0 -- -- 74
2018-11-18 08:00:00 8.8 22 Sudeste 34 Sur 0 -- -- 78
2018-11-18 07:00:00 8.8 16 Sudeste 29 Sur 0 -- -- 84
2018-11-18 06:00:00 8.7 18 Sur 32 Sur 0 -- -- 87
2018-11-18 05:00:00 8.9 21 Sur 31 Sur 0 -- -- 87
2018-11-18 04:00:00 9 14 Sur 24 Sur 0 -- -- 89
2018-11-18 03:00:00 9.2 13 Sur 31 Sur 0 -- -- 87
2018-11-18 02:00:00 9.4 17 Sur 31 Sur 0 -- -- 90
2018-11-18 01:00:00 9.4 17 Sur 26 Sur 0 -- -- 90
2018-11-18 00:00:00 9.5 5 Este 20 Sur 0 -- -- 90
2018-11-17 23:00:00 9.7 16 Sudoeste 23 Sudoeste 0 -- -- 91
2018-11-17 22:00:00 10.1 8 Sur 15 Sur 0 -- -- 92
2018-11-17 21:00:00 10.5 7 Sur 17 Sudeste 0 -- -- 90
2018-11-17 20:00:00 10.6 6 Sudeste 17 Sur 0 -- -- 88
2018-11-17 19:00:00 11 9 Sur 15 Sur 0 -- -- 86
2018-11-17 18:00:00 12 9 Sur 13 Sur 0 -- -- 81
2018-11-17 17:00:00 13 9 Sudoeste 14 Sudoeste 0 -- -- 77
2018-11-17 16:00:00 14.8 8 Sur 11 Sur 0 -- -- 71
2018-11-17 15:00:00 14 2 Sur 8 Sudeste 0 -- -- 73
2018-11-17 14:00:00 13.1 3 Noroeste 9 Norte 0 -- -- 77
2018-11-17 13:00:00 12.5 7 Noroeste 11 Noroeste 0 -- -- 80
2018-11-17 12:00:00 11 6 Noroeste 10 Oeste 0 -- -- 91
2018-11-17 11:00:00 9.1 4 Norte 8 Noroeste 0 -- -- 97
2018-11-17 10:00:00 7.5 3 Noroeste 8 Sudeste 0 -- -- 97
2018-11-17 09:00:00 6.5 2 Sudeste 6 Oeste 0 -- -- 97
2018-11-17 08:00:00 6.2 3 Este 5 Sudoeste 0 -- -- 98
2018-11-17 07:00:00 5.7 3 Norte 9 Noroeste 0 -- -- 98
2018-11-17 06:00:00 6.5 4 Sur 9 Este 0 -- -- 96
2018-11-17 05:00:00 6.1 4 Nordeste 10 Sur 0 -- -- 95
2018-11-17 04:00:00 6.8 0 Calma 6 Norte 0 -- -- 96
2018-11-17 03:00:00 6.8 3 Oeste 5 Oeste 0 -- -- 95
2018-11-17 02:00:00 7.3 4 Noroeste 8 Norte 0 -- -- 94
2018-11-17 01:00:00 7.8 6 Este 13 Sudeste 0 -- -- 94
2018-11-17 00:00:00 8.7 4 Sudoeste 9 Sudoeste 0 -- -- 93
2018-11-16 23:00:00 8.5 5 Este 6 Este 0 -- -- 91
2018-11-16 22:00:00 9.9 3 Este 15 Sudeste 0 -- -- 88
2018-11-16 21:00:00 10.6 5 Sur 14 Este 0 -- -- 87
2018-11-16 20:00:00 11.1 6 Sur 17 Este 0 -- -- 87
2018-11-16 19:00:00 10.7 9 Sudeste 12 Sur 0 -- -- 84
2018-11-16 18:00:00 12.6 10 Sur 20 Sur 0 -- -- 76
2018-11-16 17:00:00 14.4 13 Sur 25 Sur 0 -- -- 68
2018-11-16 16:00:00 15.2 14 Sudoeste 23 Sudoeste 0 -- -- 66
2018-11-16 15:00:00 14.3 12 Sudoeste 24 Sudoeste 0 -- -- 73
2018-11-16 14:00:00 15.9 14 Sudoeste 23 Sur 0 -- -- 66
2018-11-16 13:00:00 15.3 12 Sur 20 Sur 0 -- -- 68
2018-11-16 12:00:00 13.6 12 Sur 16 Sur 0 -- -- 74
2018-11-16 11:00:00 12.3 6 Este 11 Este 0 -- -- 82
2018-11-16 10:00:00 8.9 2 Sur 10 Sudeste 0 -- -- 93
2018-11-16 09:00:00 7.6 4 Sudeste 6 Sudeste 0 -- -- 96
2018-11-16 08:00:00 7.1 4 Sudoeste 6 Sur 0 -- -- 95
2018-11-16 07:00:00 7.2 4 Noroeste 5 Noroeste 0 -- -- 94
2018-11-16 06:00:00 7.6 2 Sur 6 Sudoeste 0 -- -- 94
2018-11-16 05:00:00 8.5 0 Calma 6 Nordeste 0 -- -- 93
2018-11-16 04:00:00 9.3 4 Noroeste 6 Este 0 -- -- 90
2018-11-16 03:00:00 10.1 5 Sudeste 15 Sur 0 -- -- 88
2018-11-16 02:00:00 10.3 12 Sur 21 Sudeste 0 -- -- 93
2018-11-16 01:00:00 9.4 2 Sudeste 10 Sudeste 0 -- -- 93
2018-11-16 00:00:00 9.7 0 Calma 5 Sudoeste 0 -- -- 92
2018-11-15 23:00:00 10.1 4 Noroeste 8 Norte 0 -- -- 91
2018-11-15 22:00:00 11 6 Sur 15 Sudeste 0 -- -- 88
2018-11-15 21:00:00 11.2 4 Sudoeste 9 Sudoeste 0 -- -- 85
2018-11-15 20:00:00 11.5 5 Sur 15 Sur 0 -- -- 85
2018-11-15 19:00:00 12.1 4 Este 18 Sur 0 -- -- 86
2018-11-15 18:00:00 13 15 Sur 23 Sur 0 -- -- 82
2018-11-15 17:00:00 14 14 Sur 27 Sur 0 -- -- 76
2018-11-15 16:00:00 14.6 19 Sur 27 Sur 0 -- -- 72
2018-11-15 15:00:00 15.2 12 Sur 21 Sur 0 -- -- 73
2018-11-15 14:00:00 16 9 Sur 20 Sur 0 -- -- 68
2018-11-15 13:00:00 16.2 9 Sudeste 19 Sur 0 -- -- 67
2018-11-15 12:00:00 14.9 10 Sur 19 Sur 0 -- -- 71
2018-11-15 11:00:00 13.1 8 Sudeste 15 Sudeste 0 -- -- 79
2018-11-15 10:00:00 11.9 8 Sudeste 18 Sur 0 -- -- 82
2018-11-15 09:00:00 11.3 10 Sur 21 Sur 0 -- -- 84
2018-11-15 08:00:00 10.7 12 Sur 24 Sur 0 -- -- 85
2018-11-15 07:00:00 10.9 17 Sur 23 Sur 0 -- -- 84
2018-11-15 06:00:00 10.7 8 Sudeste 22 Sur 0 -- -- 86
2018-11-15 05:00:00 10.6 16 Sur 26 Sur 0 -- -- 88
2018-11-15 04:00:00 11.2 17 Sur 27 Sudoeste 0 -- -- 88
2018-11-15 03:00:00 11.6 20 Sur 29 Sur 0 -- -- 83
2018-11-15 02:00:00 12 17 Sur 24 Sur 0 -- -- 80
2018-11-15 01:00:00 12.1 12 Sur 21 Sur 0 -- -- 80
2018-11-15 00:00:00 11.7 13 Sur 19 Sur 0 -- -- 82
2018-11-14 23:00:00 11.2 8 Sur 16 Sur 0 -- -- 83
2018-11-14 22:00:00 11.6 9 Sur 24 Sudeste 0 -- -- 82
2018-11-14 21:00:00 12.3 15 Sur 25 Sur 0 -- -- 79
2018-11-14 20:00:00 12.2 17 Sur 30 Sur 0 -- -- 85
2018-11-14 19:00:00 12.5 20 Sur 27 Sur 0 -- -- 85
2018-11-14 18:00:00 12.9 9 Sur 21 Sur 0 -- -- 82
2018-11-14 17:00:00 14.1 13 Sur 22 Sur 0 -- -- 77
2018-11-14 16:00:00 14.6 11 Sur 22 Sur 0 -- -- 77
2018-11-14 15:00:00 14.6 15 Sur 23 Sur 0 -- -- 77
2018-11-14 14:00:00 15.1 14 Sur 22 Sur 0 -- -- 76
2018-11-14 13:00:00 14 15 Sur 20 Sur 0 -- -- 78
2018-11-14 12:00:00 13.1 2 Sudeste 10 Sudeste 0 -- -- 87
2018-11-14 11:00:00 10.7 9 Sudeste 16 Sur 0 -- -- 96
2018-11-14 10:00:00 8.5 8 Sudeste 15 Sudeste 0 -- -- 99
2018-11-14 09:00:00 7.1 2 Oeste 8 Sudoeste 0 -- -- 98
2018-11-14 08:00:00 6.5 3 Sur 5 Sur 0 -- -- 95
2018-11-14 07:00:00 6.9 2 Este 5 Sudoeste 0 -- -- 96
2018-11-14 06:00:00 6.1 0 Calma 6 Noroeste 0 -- -- 97
2018-11-14 05:00:00 7.7 3 Noroeste 6 Noroeste 0 -- -- 97
2018-11-14 04:00:00 7.5 0 Calma 6 Noroeste 0 -- -- 96
2018-11-14 03:00:00 7.8 2 Norte 5 Noroeste 0 -- -- 92
2018-11-14 02:00:00 8.3 0 Calma 5 Sudoeste 0 -- -- 95
2018-11-14 01:00:00 8.5 2 Noroeste 6 Norte 0 -- -- 94
2018-11-14 00:00:00 9.7 0 Calma 6 Sur 0 -- -- 90
2018-11-13 23:00:00 10.1 0 Calma 5 Sudoeste 0 -- -- 89
2018-11-13 22:00:00 11.1 3 Norte 15 Sudeste 0 -- -- 87
2018-11-13 21:00:00 11.8 8 Sur 21 Sur 0 -- -- 85
2018-11-13 20:00:00 12.5 19 Sur 30 Sur 0 -- -- 85
2018-11-13 19:00:00 13.2 16 Sur 24 Sur 0 -- -- 80
2018-11-13 18:00:00 13.6 4 Noroeste 14 Sur 0 -- -- 78
2018-11-13 17:00:00 15.8 9 Sur 18 Sudoeste 0 -- -- 70
2018-11-13 16:00:00 16.8 8 Sur 19 Sur 0 -- -- 67
2018-11-13 15:00:00 17.2 8 Sur 18 Sur 0 -- -- 64
2018-11-13 14:00:00 16 5 Norte 9 Noroeste 0 -- -- 70
2018-11-13 13:00:00 14.7 3 Norte 9 Sudeste 0 -- -- 76
2018-11-13 12:00:00 13.2 3 Norte 8 Oeste 0 -- -- 81
2018-11-13 11:00:00 11 4 Noroeste 6 Noroeste 0 -- -- 92
2018-11-13 10:00:00 10.4 0 Calma 4 Norte 0 -- -- 95
2018-11-13 09:00:00 8.9 0 Calma 7 Noroeste 0 -- -- 95
2018-11-13 08:00:00 8.4 5 Noroeste 6 Noroeste 0 -- -- 91
2018-11-13 07:00:00 9.3 3 Sur 4 Sur 0 -- -- 95
2018-11-13 06:00:00 9.3 5 Este 6 Este 0 -- -- 94
2018-11-13 05:00:00 9.6 3 Nordeste 8 Norte 0 -- -- 93
2018-11-13 04:00:00 10.3 5 Oeste 9 Sur 0 -- -- 89
2018-11-13 03:00:00 11 0 Calma 13 Sudoeste 0 -- -- 89
2018-11-13 02:00:00 12.1 9 Sudoeste 14 Sudeste 0 -- -- 85
2018-11-13 01:00:00 12.5 12 Este 32 Sur 0 -- -- 85
2018-11-13 00:00:00 13.4 21 Sudoeste 33 Sudoeste 0 -- -- 82
2018-11-12 23:00:00 13.6 24 Sudoeste 37 Sudoeste 0 -- -- 81
2018-11-12 22:00:00 13.6 19 Sudoeste 30 Sur 0 -- -- 79
2018-11-12 21:00:00 13.8 22 Sur 32 Sur 0 -- -- 76
2018-11-12 20:00:00 13.7 23 Sur 33 Sur 0 -- -- 79
2018-11-12 19:00:00 13.9 23 Sur 34 Sur 0 -- -- 79
2018-11-12 18:00:00 14.5 21 Sur 33 Sur 0 -- -- 76
2018-11-12 17:00:00 15.5 21 Sur 34 Sudoeste 0 -- -- 72
2018-11-12 16:00:00 16.5 23 Sur 33 Sur 0 -- -- 63
2018-11-12 15:00:00 16.5 19 Sur 39 Sur 0 -- -- 63
2018-11-12 14:00:00 16 22 Sur 36 Sur 0 -- -- 64
2018-11-12 13:00:00 15.6 12 Sudeste 30 Sur 0 -- -- 67
2018-11-12 12:00:00 15 19 Sur 29 Sudeste 0 -- -- 70
2018-11-12 11:00:00 13.5 13 Sur 28 Sur 0 -- -- 78
2018-11-12 10:00:00 13.2 15 Sur 23 Sur 0 -- -- 78
2018-11-12 09:00:00 12.8 13 Sur 21 Sur 0 -- -- 80
2018-11-12 08:00:00 12.7 17 Sur 24 Sur 0 -- -- 81
2018-11-12 07:00:00 13.1 13 Sur 25 Sur 0 -- -- 77
2018-11-12 06:00:00 13.2 15 Sur 24 Sudeste 0 -- -- 77
2018-11-12 05:00:00 13.1 12 Sur 36 Sudeste 0 -- -- 78
2018-11-12 04:00:00 13.2 22 Sudeste 36 Sudeste 0 -- -- 79
2018-11-12 03:00:00 13.4 17 Sudeste 31 Sudeste 0 -- -- 77
2018-11-12 02:00:00 13.5 16 Sudeste 28 Sudeste 0 -- -- 74
2018-11-12 01:00:00 13.1 18 Sur 27 Sur 0 -- -- 75
2018-11-12 00:00:00 13.4 16 Sur 35 Sur 0 -- -- 74
2018-11-11 23:00:00 14.1 22 Sur 32 Sur 0 -- -- 70
2018-11-11 22:00:00 13.9 15 Sur 30 Sudeste 0 -- -- 71
2018-11-11 21:00:00 13.6 19 Sur 42 Sudeste 0 -- -- 71
2018-11-11 20:00:00 13.3 22 Sudeste 40 Sudeste 0 -- -- 73
2018-11-11 19:00:00 13.5 17 Sur 29 Sudeste 0 -- -- 74
2018-11-11 18:00:00 14.2 15 Sur 34 Sudeste 0 -- -- 72
2018-11-11 17:00:00 15.3 16 Sudeste 34 Sudeste 0 -- -- 68
2018-11-11 16:00:00 16.6 21 Sur 41 Sudeste 0 -- -- 62
2018-11-11 15:00:00 15 27 Sudeste 41 Sudeste 0 -- -- 73
2018-11-11 14:00:00 14.7 14 Sudeste 31 Sudeste 0 -- -- 76
2018-11-11 13:00:00 13.6 13 Sur 34 Sur 0 -- -- 78
2018-11-11 12:00:00 12.9 27 Sur 39 Sur 0 -- -- 79
2018-11-11 11:00:00 12.3 24 Sur 38 Sur 0 -- -- 78
2018-11-11 10:00:00 11.2 21 Sur 33 Sur 0 -- -- 81
2018-11-11 09:00:00 10.6 23 Sur 32 Sudeste 0 -- -- 83
2018-11-11 08:00:00 10.1 23 Sur 36 Sur 0 -- -- 85
2018-11-11 07:00:00 10.2 21 Sur 33 Sur 0 -- -- 85
2018-11-11 06:00:00 10.4 18 Sur 26 Sur 0 -- -- 84
2018-11-11 05:00:00 10.3 12 Sur 21 Sudeste 0 -- -- 85
2018-11-11 04:00:00 10.1 9 Sudeste 19 Sudeste 0 -- -- 87
2018-11-11 03:00:00 9.9 11 Sudeste 29 Sur 0 -- -- 89
2018-11-11 02:00:00 10.1 14 Este 24 Sudeste 0 -- -- 88
2018-11-11 01:00:00 10.1 16 Este 25 Sudeste 0 -- -- 88
2018-11-11 00:00:00 10.9 16 Este 28 Sudeste 0 -- -- 87
2018-11-10 23:00:00 10.9 15 Sur 28 Sur 0 -- -- 87
2018-11-10 22:00:00 11.1 21 Sur 29 Sur 0 -- -- 87
2018-11-10 21:00:00 11 22 Sur 31 Sur 0 -- -- 88
2018-11-10 20:00:00 11 19 Sur 36 Sur 0 -- -- 89
2018-11-10 19:00:00 10.7 21 Sur 35 Sur 0.2 -- -- 89
2018-11-10 18:00:00 10.5 13 Sudeste 27 Sur 0.6 -- -- 90
2018-11-10 17:00:00 10.7 3 Nordeste 12 Sur 0.4 -- -- 89
2018-11-10 16:00:00 10.6 9 Sudeste 20 Sudeste 0.4 -- -- 89
2018-11-10 15:00:00 11.3 11 Este 28 Sudeste 0 -- -- 82
2018-11-10 14:00:00 11.2 15 Sudeste 27 Este 0 -- -- 83
2018-11-10 13:00:00 11.3 11 Sudeste 27 Sudeste 0 -- -- 80
2018-11-10 12:00:00 11.1 12 Sudeste 38 Sudeste 0 -- -- 80
2018-11-10 11:00:00 9.7 19 Sudeste 33 Sudeste 0.2 -- -- 87
2018-11-10 10:00:00 8.4 22 Sur 35 Sur 0.2 -- -- 86
2018-11-10 09:00:00 8.5 15 Sur 26 Sur 0 -- -- 79
2018-11-10 08:00:00 7.7 16 Sur 24 Sur 0 -- -- 82
2018-11-10 07:00:00 7.9 10 Sur 21 Sur 0 -- -- 83
2018-11-10 06:00:00 7.4 11 Sur 19 Sur 0 -- -- 84
2018-11-10 05:00:00 7.3 4 Sudoeste 12 Sur 0 -- -- 84
2018-11-10 04:00:00 7.1 5 Sudeste 10 Sudeste 0 -- -- 85
2018-11-10 03:00:00 7.7 4 Sur 14 Sur 0 -- -- 81
2018-11-10 02:00:00 7.7 8 Sur 16 Sur 0 -- -- 81
2018-11-10 01:00:00 7.1 12 Sur 27 Sur 0 -- -- 84
2018-11-10 00:00:00 7.2 15 Sur 22 Sur 0 -- -- 83
2018-11-09 23:00:00 6.6 5 Sur 8 Este 0 -- -- 89
2018-11-09 22:00:00 6.9 3 Este 6 Sur 0 -- -- 85
2018-11-09 21:00:00 6.3 0 Calma 3 Sudoeste 0 -- -- 85
2018-11-09 20:00:00 6.3 3 Nordeste 10 Oeste 0 -- -- 84
2018-11-09 19:00:00 7 8 Sudoeste 11 Sudoeste 0 -- -- 82
2018-11-09 18:00:00 8.1 3 Oeste 10 Noroeste 0 -- -- 76
2018-11-09 17:00:00 11.1 9 Noroeste 30 Noroeste 0 -- -- 66
2018-11-09 16:00:00 11.3 23 Noroeste 37 Noroeste 0 -- -- 69
2018-11-09 15:00:00 11.1 25 Noroeste 34 Noroeste 0 -- -- 69
2018-11-09 14:00:00 11.5 18 Noroeste 34 Noroeste 0 -- -- 69
2018-11-09 13:00:00 10.4 21 Noroeste 39 Noroeste 0 -- -- 72
2018-11-09 12:00:00 10.1 31 Noroeste 41 Noroeste 0 -- -- 72
2018-11-09 11:00:00 9.2 29 Noroeste 42 Noroeste 0 -- -- 76
2018-11-09 10:00:00 8.6 28 Noroeste 42 Noroeste 0 -- -- 79
2018-11-09 09:00:00 7.4 26 Noroeste 36 Noroeste 0.2 -- -- 87
2018-11-09 08:00:00 7 23 Noroeste 34 Noroeste 0 -- -- 88
2018-11-09 07:00:00 6.6 20 Noroeste 27 Noroeste 0 -- -- 93
2018-11-09 06:00:00 6.6 4 Este 11 Noroeste 0 -- -- 96
2018-11-09 05:00:00 6.7 5 Norte 15 Noroeste 0 -- -- 95
2018-11-09 04:00:00 6.6 7 Oeste 17 Nordeste 3 -- -- 95
2018-11-09 03:00:00 7.4 10 Nordeste 24 Noroeste 2.4 -- -- 93
2018-11-09 02:00:00 9.8 10 Sudoeste 27 Sudoeste 0.2 -- -- 88
2018-11-09 01:00:00 9.6 15 Sudeste 33 Sudeste 1 -- -- 88
2018-11-09 00:00:00 9.5 15 Sudeste 39 Sudeste 0.2 -- -- 88